Terminal Aerodrome Forecast
Issued by NWS

Home | Current Version | Previous Version | Text Only | Print | Product List | Glossary On
Versions: 1 2 3 4 5 6 7 8 9 10 11 12 13 14 15
829
FTUS42 KGSP 301130
TAFGMU
TAF
KGMU 301130Z 3012/3112 25003KT P6SM VCSH FEW100 SCT250
     FM301800 24007KT P6SM VCTS SCT060CB PROB30 3021/3024 4SM -TSRA
      BKN050CB
     FM310200 26003KT P6SM FEW080 SCT150=

USA.gov is the U.S. government's official web portal to all federal, state and local government web resources and services.